Main page
METAR-TAF:

METAR-TAF

Airports :

Luena Airport

Luena, Angola

latitude: 11-46-05S, longitude: 19-53-50E, elevation: 1329 m

Current weather observation

The report was made 15 hours and 40 minutes ago, at 15:00 UTC
Wind 9 kt from the East/Southeast, varying between East and South/Southeast
Temperature 27°C
Humidity 58%
Pressure 1019 hPa
Visibility 10 km or more
Scattered clouds at a height of 2500 ft
Few clouds at a height of 3000 ft, Towering cumulus.

METAR: FNUE 161500Z 12009KT 090V150 9999 SCT025 FEW030TCU 27/18 Q1019

Time: 07:40 (06:40 UTC)

Forecast

The report was made 7 hours and 40 minutes ago, at 23:00 UTC
Forecast valid from 17 at 00 UTC to 17 at 12 UTC
Wind 5 kt from the South/Southeast
Visibility: 9000 m
Few clouds at a height of 2000 ft
Becoming
from 17 at 10 UTC to 17 at 12 UTC
Wind 10 kt from the East/Northeast

TAF: FNUE 162300Z 1700/1712 16005KT 9000 FEW020 BECMG 1710/1712 07010KT

Weather observations and forecasts of more than 4000 airports (METAR and TAF reports).

The available stations are represented by yellow and red dots on the map.

Hover mouse over dot to see the name of the station.

Then click to see weather observations and forecasts.

To change the map : click on the green buttons with a black cross to zoom in, on the green button with a dash to zoom out, or on the green arrows for adjacent maps.


METAR-TAF: